Time;durP1;ratioP1;P1;durP2;ratioP2;P2;SDS_P1;SDS_P2;PMS_P1;PMS_P2;Temp;Humidity;BMP_temperature;BMP_pressure;BME280_temperature;BME280_humidity;BME280_pressure;Samples;Min_cycle;Max_cycle;Signal;HPM_P1;HPM_P2
2022/12/17 13:13:54;;;;;;;0.30;0.20;;;5.40;89.20;;;;;;20017280;29;20042;-56
2022/12/17 13:23:57;;;;;;;0.32;0.20;;;4.80;90.00;;;;;;20020427;29;20493;-56
2022/12/17 13:34:25;;;;;;;2.10;0.82;;;4.60;89.50;;;;;;20036764;29;20042;-63
2022/12/17 13:44:42;;;;;;;0.80;0.60;;;4.70;98.50;;;;;;20030811;29;20381;-57
2022/12/17 13:54:44;;;;;;;0.73;0.60;;;4.30;98.80;;;;;;20032177;29;20041;-58
2022/12/17 14:04:52;;;;;;;1.60;0.90;;;4.00;99.90;;;;;;20035992;29;20042;-57
2022/12/17 14:14:59;;;;;;;1.40;0.80;;;3.50;99.90;;;;;;20031804;29;20050;-57
2022/12/17 14:25:01;;;;;;;1.77;1.10;;;3.40;99.90;;;;;;20035560;29;20561;-59
2022/12/17 14:35:03;;;;;;;1.83;1.00;;;3.00;99.90;;;;;;20034857;29;20045;-56
2022/12/17 14:45:13;;;;;;;1.70;1.10;;;2.60;99.90;;;;;;20032962;29;20075;-58
2022/12/17 14:55:25;;;;;;;1.83;0.95;;;2.30;99.90;;;;;;20022901;29;20062;-58
2022/12/17 15:05:27;;;;;;;22.20;12.27;;;1.90;99.90;;;;;;20031619;29;20450;-59
2022/12/17 15:15:29;;;;;;;1.95;0.98;;;1.20;99.90;;;;;;20033513;29;20045;-56
2022/12/17 15:25:31;;;;;;;1.40;0.73;;;0.70;99.90;;;;;;20029043;29;20050;-58
2022/12/17 15:35:36;;;;;;;10.18;6.30;;;0.40;99.90;;;;;;20028910;29;20672;-57
2022/12/17 15:45:44;;;;;;;1.65;0.80;;;0.00;99.90;;;;;;20028118;29;20370;-55
2022/12/17 15:55:46;;;;;;;11.88;7.40;;;-0.40;99.90;;;;;;20027986;29;20034;-55
2022/12/17 16:05:52;;;;;;;0.95;0.40;;;-0.80;99.90;;;;;;20024135;29;20042;-55
2022/12/17 16:15:57;;;;;;;0.82;0.40;;;-1.10;99.90;;;;;;20029629;29;20117;-56
2022/12/17 16:26:01;;;;;;;2.28;0.50;;;-1.10;99.90;;;;;;20027410;29;20517;-53
2022/12/17 16:36:05;;;;;;;0.90;0.40;;;-1.20;99.90;;;;;;20010925;29;20041;-53
2022/12/17 16:46:32;;;;;;;0.82;0.40;;;-1.40;99.90;;;;;;20366020;23;20028;31
2022/12/17 16:56:38;;;;;;;3.25;2.20;;;-1.40;99.90;;;;;;20265259;23;20125;-46
2022/12/17 17:06:45;;;;;;;2.92;2.10;;;-1.60;99.90;;;;;;20191668;23;20062;-42
2022/12/17 17:16:47;;;;;;;19.73;12.30;;;-1.80;99.90;;;;;;20228213;23;20565;-53
2022/12/17 17:26:50;;;;;;;1.45;0.75;;;-1.90;99.90;;;;;;20232098;23;20107;-43
2022/12/17 17:36:59;;;;;;;0.55;0.30;;;-2.00;99.90;;;;;;20206718;23;20154;31
2022/12/17 17:47:01;;;;;;;1.52;1.00;;;-2.10;99.90;;;;;;20171770;23;20130;-54
2022/12/17 17:57:03;;;;;;;0.57;0.40;;;-2.00;99.90;;;;;;20235045;23;20049;-46
2022/12/17 18:07:05;;;;;;;42.33;25.98;;;-2.10;99.90;;;;;;20218923;23;20122;-54
2022/12/17 18:17:07;;;;;;;2.65;0.60;;;-2.20;99.90;;;;;;20203263;23;20625;-43
2022/12/17 18:27:08;;;;;;;1.20;0.40;;;-2.40;99.90;;;;;;20214218;23;20066;-54
2022/12/17 18:37:10;;;;;;;0.90;0.40;;;-2.50;99.90;;;;;;20153957;23;20521;-51
2022/12/17 18:47:12;;;;;;;1.05;0.63;;;-2.40;99.90;;;;;;20212126;23;20453;-46
2022/12/17 18:57:14;;;;;;;1.48;0.82;;;-2.40;99.90;;;;;;20189083;23;20057;-51
2022/12/17 19:07:16;;;;;;;4.32;2.03;;;-2.40;99.90;;;;;;20209008;23;20058;-43
2022/12/17 19:17:18;;;;;;;7.05;4.40;;;-2.50;99.90;;;;;;20209721;23;20058;31
2022/12/17 19:27:20;;;;;;;3.35;1.05;;;-2.50;99.90;;;;;;20168444;23;20101;-55
2022/12/17 19:37:22;;;;;;;3.50;2.35;;;-2.50;99.90;;;;;;20187786;23;20073;-43
2022/12/17 19:47:24;;;;;;;1.45;0.93;;;-2.40;99.90;;;;;;20209144;23;20053;-56
2022/12/17 19:57:25;;;;;;;1.30;0.73;;;-2.40;99.90;;;;;;20207114;23;20226;-43
2022/12/17 20:07:33;;;;;;;4.53;2.10;;;-2.50;99.90;;;;;;20191800;23;20532;31
2022/12/17 20:17:35;;;;;;;2.53;1.30;;;-2.40;99.90;;;;;;20163064;23;20122;-54
2022/12/17 20:27:38;;;;;;;1.70;1.00;;;-2.30;99.90;;;;;;20213806;23;20066;-46
2022/12/17 20:37:39;;;;;;;2.78;1.70;;;-2.30;99.90;;;;;;20221369;23;20062;-54
2022/12/17 20:47:41;;;;;;;2.85;1.58;;;-2.30;99.90;;;;;;20193889;23;20054;-48
2022/12/17 20:57:43;;;;;;;2.47;1.52;;;-2.30;99.90;;;;;;20209047;23;20123;-51
2022/12/17 21:07:46;;;;;;;4.25;1.50;;;-2.40;99.90;;;;;;20133816;23;20446;-55
2022/12/17 21:17:49;;;;;;;2.38;1.25;;;-2.50;99.90;;;;;;20016837;29;20034;-62
2022/12/17 21:27:51;;;;;;;3.97;1.30;;;-2.40;99.90;;;;;;20022623;29;20142;-62
2022/12/17 21:37:52;;;;;;;1.73;0.90;;;-2.50;99.90;;;;;;20013812;29;20094;-55
2022/12/17 21:47:54;;;;;;;2.33;1.35;;;-2.60;99.90;;;;;;20030883;29;20086;-62
2022/12/17 21:57:56;;;;;;;2.13;1.30;;;-2.70;99.90;;;;;;20036326;29;20488;-63
2022/12/17 22:07:58;;;;;;;2.25;1.33;;;-2.70;99.90;;;;;;20035560;29;20110;-56
2022/12/17 22:18:00;;;;;;;2.20;1.48;;;-2.70;99.90;;;;;;20035758;29;20100;-56
2022/12/17 22:28:03;;;;;;;6.43;3.00;;;-2.70;99.90;;;;;;20032768;29;20038;-55
2022/12/17 22:38:05;;;;;;;3.70;2.22;;;-2.70;99.90;;;;;;20036218;29;20385;-56
2022/12/17 22:48:09;;;;;;;11.32;5.25;;;-2.60;99.90;;;;;;20033461;29;20397;-56
2022/12/17 22:58:11;;;;;;;4.70;2.22;;;-2.80;99.90;;;;;;20028607;29;20045;-57
2022/12/17 23:08:13;;;;;;;17.05;6.43;;;-3.00;99.90;;;;;;20025609;29;20212;-58
2022/12/17 23:18:14;;;;;;;12.30;5.25;;;-3.10;99.90;;;;;;20034730;29;20037;-55
2022/12/17 23:28:16;;;;;;;5.25;2.75;;;-2.90;99.90;;;;;;20031645;29;20094;-55
2022/12/17 23:38:18;;;;;;;4.03;2.47;;;-3.00;99.90;;;;;;20026404;29;20030;-63
2022/12/17 23:48:20;;;;;;;5.50;3.17;;;-3.00;99.90;;;;;;20689511;23;20513;-53
2022/12/17 23:58:22;;;;;;;5.68;3.40;;;-3.10;99.90;;;;;;20196872;23;20055;-42
